首页
METAR-TAF:

METAR-TAF

机场 :

哈米德·卡尔扎伊国际机场

喀布尔, 阿富汗

纬度: 34-38N, 经度: 069-12E, 海拔: 1789米

当前天气观测

该预报发布于56分钟前的19:50 UTC
风速3节,风向多变
温度 9°C
湿度 71%
气压 1019 hPa
能见度10公里或以上
少量云层高于1500英尺

METAR: OAKB 071950Z VRB03KT 9999 FEW015 09/04 Q1019 RMK A3010 BLU BLU

时间: 01:16 (20:46 UTC)

预报

该预报发布于3小时和41分钟前的17:05 UTC
预报有效从07日的 18点(UTC)到 08日的 18点(UTC)
风速2节,风向多变
能见度10公里或以上
1500米以下无云,无积雨云
几率 30% :
短暂存在
从 08日的 00点(UTC)到 08日的 03点(UTC)
能見度: 5000
轻雾
成为
从 08日的 05点(UTC)到 08日的 07点(UTC)
少量云层高于5000英尺
成为
从 08日的 10点(UTC)到 08日的 11点(UTC)
风速10节,风向东北
多云层高于5000英尺
几率 30% :
短暂存在
从 08日的 11点(UTC)到 08日的 15点(UTC)
风速10节,风向东转东北,有时为20节阵风
多云层高于4000英尺, 积雨云.
附近有雷暴

TAF: OAKB 071705Z 0718/0818 VRB02KT CAVOK PROB30 TEMPO 0800/0803 5000 BR BECMG 0805/0807 FEW050 BECMG 0810/0811 04010KT BKN050 PROB30 TEMPO 0811/0815 06010G20KT VCTS BKN040CB

超过4000个机场的气象观测和天气预报(METAR&TAF报告)。

可查询的气象台以黄色和红色小点在地图上表示。

将鼠标移到小点上方,可查看气象台名称。

然后点击查看天气观测和预报。

如需切换地图:点击带黑十字的绿色按钮放大地图;点击带横线的绿色按钮缩小地图;或者点击绿色箭头查看邻近地区的地图。


METAR-TAF: